createdAt,value
2022-11-09T15:02:24.245Z,68.43
2022-11-09T15:04:51.845Z,68.82
2022-11-09T15:07:20.496Z,69.88
2022-11-09T15:09:48.996Z,68.04
2022-11-09T15:12:19.708Z,67.89
2022-11-09T15:15:06.225Z,68.49
2022-11-09T15:17:35.026Z,68.37
2022-11-09T15:20:24.255Z,68.13
2022-11-09T15:22:50.853Z,68.69
2022-11-09T15:25:22.656Z,69.06
2022-11-09T15:27:59.932Z,68.72
2022-11-09T15:30:34.617Z,69.43
2022-11-09T15:33:01.694Z,69.39
2022-11-09T15:35:28.327Z,68.78
2022-11-09T15:37:56.076Z,68.81
2022-11-09T15:40:24.047Z,69.69
2022-11-09T15:42:50.646Z,69.09
2022-11-09T15:45:18.934Z,68.32
2022-11-09T15:47:50.849Z,68.65
2022-11-09T15:50:20.057Z,68.51
2022-11-09T15:52:49.202Z,68.98
2022-11-09T15:55:17.111Z,69.01
2022-11-09T15:57:43.980Z,68.60
2022-11-09T16:00:19.370Z,69.57
2022-11-09T16:02:47.774Z,68.65
2022-11-09T16:05:15.172Z,68.63
2022-11-09T16:07:50.683Z,68.73
2022-11-09T16:10:22.988Z,69.19
2022-11-09T16:12:56.754Z,69.49
2022-11-09T16:15:24.507Z,70.18
2022-11-09T16:17:51.446Z,71.36
2022-11-09T16:20:20.033Z,70.57
2022-11-09T16:22:46.797Z,70.45
2022-11-09T16:25:13.575Z,70.98
2022-11-09T16:27:50.161Z,71.13
2022-11-09T16:30:18.424Z,70.88
2022-11-09T16:32:45.304Z,71.80
2022-11-09T16:35:26.555Z,71.49
2022-11-09T16:37:58.489Z,72.06
2022-11-09T16:40:29.366Z,72.34
2022-11-09T16:42:58.739Z,72.35
2022-11-09T16:45:29.165Z,72.24
2022-11-09T16:48:00.237Z,72.14
2022-11-09T16:50:26.844Z,72.83
2022-11-09T16:52:53.497Z,73.15
2022-11-09T16:55:20.076Z,72.64
2022-11-09T16:57:46.661Z,73.55
2022-11-09T17:00:13.608Z,73.31
2022-11-09T17:02:40.193Z,72.32
2022-11-09T17:05:06.981Z,72.80
2022-11-09T17:07:41.994Z,74.10
2022-11-09T17:10:09.513Z,73.57
2022-11-09T17:12:36.110Z,73.50
2022-11-09T17:15:02.693Z,73.29
2022-11-09T17:17:29.551Z,73.76
2022-11-09T17:19:56.125Z,73.09
2022-11-09T17:22:26.891Z,73.07
2022-11-09T17:24:53.463Z,74.47
2022-11-09T17:27:20.035Z,73.92
2022-11-09T17:29:46.604Z,74.21
2022-11-09T17:32:13.175Z,74.32
2022-11-09T17:34:39.794Z,73.85
2022-11-09T17:37:06.438Z,73.91
2022-11-09T17:39:33.111Z,75.47
2022-11-09T17:41:59.738Z,74.46
2022-11-09T17:44:26.303Z,75.37
2022-11-09T17:46:53.023Z,77.32
2022-11-09T17:49:19.609Z,77.19
2022-11-09T17:51:46.240Z,76.80
2022-11-09T17:54:14.841Z,76.65
2022-11-09T17:56:41.559Z,76.18
2022-11-09T17:59:08.192Z,76.97
2022-11-09T18:01:41.106Z,77.83
2022-11-09T18:04:09.805Z,77.56
2022-11-09T18:06:36.537Z,76.87
2022-11-09T18:09:39.062Z,76.97
2022-11-09T18:11:50.094Z,77.49
2022-11-09T18:14:16.734Z,78.52
2022-11-09T18:16:43.747Z,78.46
2022-11-09T18:19:10.337Z,78.98
2022-11-09T18:21:36.928Z,78.72
2022-11-09T18:24:03.708Z,78.37
2022-11-09T18:26:31.587Z,78.16
2022-11-09T18:28:58.276Z,77.53
2022-11-09T18:31:27.889Z,77.63
2022-11-09T18:34:04.416Z,79.53
2022-11-09T18:36:31.160Z,79.88
2022-11-09T18:38:57.856Z,79.64
2022-11-09T18:41:24.924Z,79.25
2022-11-09T18:43:58.641Z,79.61
2022-11-09T18:46:27.103Z,79.32
2022-11-09T18:48:54.422Z,79.82
2022-11-09T18:51:21.183Z,79.40
2022-11-09T18:53:48.189Z,79.81
2022-11-09T18:56:23.644Z,80.85
2022-11-09T18:58:53.326Z,79.74
2022-11-09T19:01:20.475Z,80.11
2022-11-09T19:04:00.585Z,79.83
2022-11-09T19:06:28.125Z,79.95
2022-11-09T19:09:13.145Z,81.17
2022-11-09T19:11:39.724Z,81.03
2022-11-09T19:14:06.343Z,81.60
2022-11-09T19:16:32.958Z,82.68
2022-11-09T19:18:59.554Z,81.77
2022-11-09T19:21:32.758Z,81.01
2022-11-09T19:24:00.528Z,81.21
2022-11-09T19:26:27.238Z,81.72
2022-11-09T19:28:53.896Z,81.83
2022-11-09T19:31:21.982Z,82.53
2022-11-09T19:33:53.554Z,82.27
2022-11-09T19:36:30.176Z,82.04
2022-11-09T19:38:57.846Z,81.80
2022-11-09T19:41:25.731Z,80.59
2022-11-09T19:43:54.717Z,81.63
2022-11-09T19:46:21.963Z,83.06
2022-11-09T19:48:48.819Z,82.76
2022-11-09T19:51:16.539Z,82.33
2022-11-09T19:53:48.241Z,81.16
2022-11-09T19:56:14.872Z,81.38
2022-11-09T19:58:41.514Z,81.01
2022-11-09T20:01:09.545Z,80.85
2022-11-09T20:03:36.759Z,81.13
2022-11-09T20:06:04.078Z,81.26
2022-11-09T20:08:32.107Z,80.75
2022-11-09T20:11:04.158Z,81.54
2022-11-09T20:13:30.744Z,81.60
2022-11-09T20:16:04.596Z,82.41
2022-11-09T20:18:31.241Z,82.16
2022-11-09T20:20:57.871Z,81.58
2022-11-09T20:23:24.606Z,81.29
2022-11-09T20:25:51.192Z,81.76
2022-11-09T20:28:18.018Z,81.54
2022-11-09T20:30:44.790Z,81.97
